sensor_id;sensor_type;location;lat;lon;timestamp;temperature;humidity
49132;DHT22;35149;51.196;6.204;2023-06-04T00:00:24;16.30;42.50
49132;DHT22;35149;51.196;6.204;2023-06-04T00:02:51;16.20;42.80
49132;DHT22;35149;51.196;6.204;2023-06-04T00:05:18;16.20;42.70
49132;DHT22;35149;51.196;6.204;2023-06-04T00:07:45;16.10;42.70
49132;DHT22;35149;51.196;6.204;2023-06-04T00:10:14;16.10;42.80
49132;DHT22;35149;51.196;6.204;2023-06-04T00:12:43;16.10;43.10
49132;DHT22;35149;51.196;6.204;2023-06-04T00:15:10;16.00;42.70
49132;DHT22;35149;51.196;6.204;2023-06-04T00:17:37;15.90;42.90
49132;DHT22;35149;51.196;6.204;2023-06-04T00:20:09;15.90;43.00
49132;DHT22;35149;51.196;6.204;2023-06-04T00:22:38;15.80;43.30
49132;DHT22;35149;51.196;6.204;2023-06-04T00:25:09;15.80;43.80
49132;DHT22;35149;51.196;6.204;2023-06-04T00:27:36;15.80;43.30
49132;DHT22;35149;51.196;6.204;2023-06-04T00:30:15;15.70;43.20
49132;DHT22;35149;51.196;6.204;2023-06-04T00:32:44;15.70;43.60
49132;DHT22;35149;51.196;6.204;2023-06-04T00:35:13;15.60;43.40
49132;DHT22;35149;51.196;6.204;2023-06-04T00:37:42;15.50;43.80
49132;DHT22;35149;51.196;6.204;2023-06-04T00:40:10;15.50;43.60
49132;DHT22;35149;51.196;6.204;2023-06-04T00:42:37;15.40;43.90
49132;DHT22;35149;51.196;6.204;2023-06-04T00:45:07;15.40;44.20
49132;DHT22;35149;51.196;6.204;2023-06-04T00:47:36;15.40;44.60
49132;DHT22;35149;51.196;6.204;2023-06-04T00:50:08;15.30;44.30
49132;DHT22;35149;51.196;6.204;2023-06-04T00:52:35;15.30;44.40
49132;DHT22;35149;51.196;6.204;2023-06-04T00:55:02;15.20;44.40
49132;DHT22;35149;51.196;6.204;2023-06-04T00:57:31;15.20;44.50
49132;DHT22;35149;51.196;6.204;2023-06-04T01:00:11;15.20;44.60
49132;DHT22;35149;51.196;6.204;2023-06-04T01:02:57;15.20;44.90
49132;DHT22;35149;51.196;6.204;2023-06-04T01:05:48;15.10;44.80
49132;DHT22;35149;51.196;6.204;2023-06-04T01:08:18;15.10;45.50
49132;DHT22;35149;51.196;6.204;2023-06-04T01:10:52;15.10;44.80
49132;DHT22;35149;51.196;6.204;2023-06-04T01:13:19;15.00;45.50
49132;DHT22;35149;51.196;6.204;2023-06-04T01:15:50;15.00;44.90
49132;DHT22;35149;51.196;6.204;2023-06-04T01:18:26;15.00;45.00
49132;DHT22;35149;51.196;6.204;2023-06-04T01:20:59;14.90;45.30
49132;DHT22;35149;51.196;6.204;2023-06-04T01:23:59;14.90;45.00
49132;DHT22;35149;51.196;6.204;2023-06-04T01:26:29;14.90;45.80
49132;DHT22;35149;51.196;6.204;2023-06-04T01:29:00;14.80;45.00
49132;DHT22;35149;51.196;6.204;2023-06-04T01:31:31;14.80;45.30
49132;DHT22;35149;51.196;6.204;2023-06-04T01:33:59;14.80;45.20
49132;DHT22;35149;51.196;6.204;2023-06-04T01:36:26;14.70;45.30
49132;DHT22;35149;51.196;6.204;2023-06-04T01:38:55;14.70;45.40
49132;DHT22;35149;51.196;6.204;2023-06-04T01:41:29;14.70;45.50
49132;DHT22;35149;51.196;6.204;2023-06-04T01:43:56;14.60;45.70
49132;DHT22;35149;51.196;6.204;2023-06-04T01:46:23;14.60;45.60
49132;DHT22;35149;51.196;6.204;2023-06-04T01:48:53;14.50;45.60
49132;DHT22;35149;51.196;6.204;2023-06-04T01:51:19;14.60;45.70
49132;DHT22;35149;51.196;6.204;2023-06-04T01:53:49;14.50;45.70
49132;DHT22;35149;51.196;6.204;2023-06-04T01:56:20;14.50;45.80
49132;DHT22;35149;51.196;6.204;2023-06-04T01:58:50;14.40;45.70
49132;DHT22;35149;51.196;6.204;2023-06-04T02:01:19;14.40;45.90
49132;DHT22;35149;51.196;6.204;2023-06-04T02:03:46;14.40;45.90
49132;DHT22;35149;51.196;6.204;2023-06-04T02:06:16;14.30;46.00
49132;DHT22;35149;51.196;6.204;2023-06-04T02:08:42;14.30;46.10
49132;DHT22;35149;51.196;6.204;2023-06-04T02:11:09;14.30;46.20
49132;DHT22;35149;51.196;6.204;2023-06-04T02:13:36;14.30;46.40
49132;DHT22;35149;51.196;6.204;2023-06-04T02:16:05;14.20;46.40
49132;DHT22;35149;51.196;6.204;2023-06-04T02:18:32;14.20;46.60
49132;DHT22;35149;51.196;6.204;2023-06-04T02:20:59;14.20;46.70
49132;DHT22;35149;51.196;6.204;2023-06-04T02:23:32;14.20;46.70
49132;DHT22;35149;51.196;6.204;2023-06-04T02:25:59;14.20;46.80
49132;DHT22;35149;51.196;6.204;2023-06-04T02:28:28;14.20;46.90
49132;DHT22;35149;51.196;6.204;2023-06-04T02:30:59;14.10;47.00
49132;DHT22;35149;51.196;6.204;2023-06-04T02:33:30;14.10;47.40
49132;DHT22;35149;51.196;6.204;2023-06-04T02:35:59;14.10;47.40
49132;DHT22;35149;51.196;6.204;2023-06-04T02:38:27;14.00;47.40
49132;DHT22;35149;51.196;6.204;2023-06-04T02:40:53;14.10;47.40
49132;DHT22;35149;51.196;6.204;2023-06-04T02:43:20;14.10;47.40
49132;DHT22;35149;51.196;6.204;2023-06-04T02:45:47;14.00;47.40
49132;DHT22;35149;51.196;6.204;2023-06-04T02:48:16;14.00;47.50
49132;DHT22;35149;51.196;6.204;2023-06-04T02:50:47;14.00;47.60
49132;DHT22;35149;51.196;6.204;2023-06-04T02:53:19;14.00;47.90
49132;DHT22;35149;51.196;6.204;2023-06-04T02:55:51;13.90;47.60
49132;DHT22;35149;51.196;6.204;2023-06-04T02:58:24;13.90;48.10
49132;DHT22;35149;51.196;6.204;2023-06-04T03:00:57;13.90;47.70
49132;DHT22;35149;51.196;6.204;2023-06-04T03:03:28;13.90;48.30
49132;DHT22;35149;51.196;6.204;2023-06-04T03:05:57;13.80;47.60
49132;DHT22;35149;51.196;6.204;2023-06-04T03:08:26;13.80;47.80
49132;DHT22;35149;51.196;6.204;2023-06-04T03:10:53;13.70;47.80
49132;DHT22;35149;51.196;6.204;2023-06-04T03:13:22;13.70;47.90
49132;DHT22;35149;51.196;6.204;2023-06-04T03:15:56;13.70;48.20
49132;DHT22;35149;51.196;6.204;2023-06-04T03:18:29;13.60;48.60
49132;DHT22;35149;51.196;6.204;2023-06-04T03:21:01;13.60;47.90
49132;DHT22;35149;51.196;6.204;2023-06-04T03:23:28;13.60;47.90
49132;DHT22;35149;51.196;6.204;2023-06-04T03:25:55;13.50;48.10
49132;DHT22;35149;51.196;6.204;2023-06-04T03:28:24;13.50;48.20
49132;DHT22;35149;51.196;6.204;2023-06-04T03:30:53;13.40;48.30
49132;DHT22;35149;51.196;6.204;2023-06-04T03:33:27;13.40;48.40
49132;DHT22;35149;51.196;6.204;2023-06-04T03:35:56;13.40;48.70
49132;DHT22;35149;51.196;6.204;2023-06-04T03:38:30;13.30;48.50
49132;DHT22;35149;51.196;6.204;2023-06-04T03:40:58;13.30;48.80
49132;DHT22;35149;51.196;6.204;2023-06-04T03:43:24;13.30;48.80
49132;DHT22;35149;51.196;6.204;2023-06-04T03:45:58;13.20;48.80
49132;DHT22;35149;51.196;6.204;2023-06-04T03:48:26;13.30;49.10
49132;DHT22;35149;51.196;6.204;2023-06-04T03:51:02;13.20;49.10
49132;DHT22;35149;51.196;6.204;2023-06-04T03:53:29;13.20;49.60
49132;DHT22;35149;51.196;6.204;2023-06-04T03:55:55;13.20;49.30
49132;DHT22;35149;51.196;6.204;2023-06-04T03:58:22;13.20;49.50
49132;DHT22;35149;51.196;6.204;2023-06-04T04:00:53;13.20;49.60
49132;DHT22;35149;51.196;6.204;2023-06-04T04:03:23;13.20;49.80
49132;DHT22;35149;51.196;6.204;2023-06-04T04:05:59;13.20;50.00
49132;DHT22;35149;51.196;6.204;2023-06-04T04:08:26;13.20;50.10
49132;DHT22;35149;51.196;6.204;2023-06-04T04:11:01;13.20;50.20
49132;DHT22;35149;51.196;6.204;2023-06-04T04:13:28;13.20;50.30
49132;DHT22;35149;51.196;6.204;2023-06-04T04:15:57;13.20;50.50
49132;DHT22;35149;51.196;6.204;2023-06-04T04:18:37;13.20;50.60
49132;DHT22;35149;51.196;6.204;2023-06-04T04:21:04;13.30;51.10
49132;DHT22;35149;51.196;6.204;2023-06-04T04:23:34;13.30;50.90
49132;DHT22;35149;51.196;6.204;2023-06-04T04:26:03;13.30;51.20
49132;DHT22;35149;51.196;6.204;2023-06-04T04:28:39;13.30;51.30
49132;DHT22;35149;51.196;6.204;2023-06-04T04:31:14;13.40;51.50
49132;DHT22;35149;51.196;6.204;2023-06-04T04:33:47;13.40;51.60
49132;DHT22;35149;51.196;6.204;2023-06-04T04:36:17;13.40;51.70
49132;DHT22;35149;51.196;6.204;2023-06-04T04:38:50;13.40;51.90
49132;DHT22;35149;51.196;6.204;2023-06-04T04:41:31;13.50;52.10
49132;DHT22;35149;51.196;6.204;2023-06-04T04:44:03;13.50;52.10
49132;DHT22;35149;51.196;6.204;2023-06-04T04:46:33;13.60;52.90
49132;DHT22;35149;51.196;6.204;2023-06-04T04:49:00;13.60;52.50
49132;DHT22;35149;51.196;6.204;2023-06-04T04:51:27;13.60;52.80
49132;DHT22;35149;51.196;6.204;2023-06-04T04:53:59;13.70;52.90
49132;DHT22;35149;51.196;6.204;2023-06-04T04:56:36;13.80;53.20
49132;DHT22;35149;51.196;6.204;2023-06-04T04:59:09;13.80;53.40
49132;DHT22;35149;51.196;6.204;2023-06-04T05:01:38;13.90;53.50
49132;DHT22;35149;51.196;6.204;2023-06-04T05:04:08;14.00;53.60
49132;DHT22;35149;51.196;6.204;2023-06-04T05:06:45;14.00;53.40
49132;DHT22;35149;51.196;6.204;2023-06-04T05:09:12;14.10;53.80
49132;DHT22;35149;51.196;6.204;2023-06-04T05:11:42;14.20;54.00
49132;DHT22;35149;51.196;6.204;2023-06-04T05:14:09;14.30;54.20
49132;DHT22;35149;51.196;6.204;2023-06-04T05:16:36;14.40;53.90
49132;DHT22;35149;51.196;6.204;2023-06-04T05:19:09;14.50;53.70
49132;DHT22;35149;51.196;6.204;2023-06-04T05:21:43;14.60;53.60
49132;DHT22;35149;51.196;6.204;2023-06-04T05:24:15;14.70;53.90
49132;DHT22;35149;51.196;6.204;2023-06-04T05:26:44;14.80;53.30
49132;DHT22;35149;51.196;6.204;2023-06-04T05:29:17;14.90;53.30
49132;DHT22;35149;51.196;6.204;2023-06-04T05:31:45;15.00;53.00
49132;DHT22;35149;51.196;6.204;2023-06-04T05:34:20;15.10;53.00
49132;DHT22;35149;51.196;6.204;2023-06-04T05:36:51;15.20;52.70
49132;DHT22;35149;51.196;6.204;2023-06-04T05:39:19;15.30;53.10
49132;DHT22;35149;51.196;6.204;2023-06-04T05:42:04;15.30;52.60
49132;DHT22;35149;51.196;6.204;2023-06-04T05:44:35;15.40;52.20
49132;DHT22;35149;51.196;6.204;2023-06-04T05:47:06;15.50;52.10
49132;DHT22;35149;51.196;6.204;2023-06-04T05:49:38;15.60;51.70
49132;DHT22;35149;51.196;6.204;2023-06-04T05:52:06;15.70;51.00
49132;DHT22;35149;51.196;6.204;2023-06-04T05:54:38;15.70;50.80
49132;DHT22;35149;51.196;6.204;2023-06-04T05:57:06;15.80;50.80
49132;DHT22;35149;51.196;6.204;2023-06-04T05:59:35;15.80;50.80
49132;DHT22;35149;51.196;6.204;2023-06-04T06:02:05;15.90;50.50
49132;DHT22;35149;51.196;6.204;2023-06-04T06:04:32;16.00;50.60
49132;DHT22;35149;51.196;6.204;2023-06-04T06:07:04;16.00;50.60
49132;DHT22;35149;51.196;6.204;2023-06-04T06:09:33;16.10;50.40
49132;DHT22;35149;51.196;6.204;2023-06-04T06:12:02;16.10;50.30
49132;DHT22;35149;51.196;6.204;2023-06-04T06:14:33;16.20;50.30
49132;DHT22;35149;51.196;6.204;2023-06-04T06:17:01;16.30;50.30
49132;DHT22;35149;51.196;6.204;2023-06-04T06:19:33;16.30;50.00
49132;DHT22;35149;51.196;6.204;2023-06-04T06:22:00;16.40;49.80
49132;DHT22;35149;51.196;6.204;2023-06-04T06:24:29;16.50;49.90
49132;DHT22;35149;51.196;6.204;2023-06-04T06:26:58;16.50;49.50
49132;DHT22;35149;51.196;6.204;2023-06-04T06:29:30;16.50;49.50
49132;DHT22;35149;51.196;6.204;2023-06-04T06:31:59;16.60;49.20
49132;DHT22;35149;51.196;6.204;2023-06-04T06:34:26;16.70;49.20
49132;DHT22;35149;51.196;6.204;2023-06-04T06:36:55;16.70;49.00
49132;DHT22;35149;51.196;6.204;2023-06-04T06:39:31;16.80;49.00
49132;DHT22;35149;51.196;6.204;2023-06-04T06:41:58;16.90;49.10
49132;DHT22;35149;51.196;6.204;2023-06-04T06:44:32;16.90;48.70
49132;DHT22;35149;51.196;6.204;2023-06-04T06:47:08;17.00;48.40
49132;DHT22;35149;51.196;6.204;2023-06-04T06:49:35;17.00;48.30
49132;DHT22;35149;51.196;6.204;2023-06-04T06:52:04;17.10;48.20
49132;DHT22;35149;51.196;6.204;2023-06-04T06:54:31;17.20;48.30
49132;DHT22;35149;51.196;6.204;2023-06-04T06:56:58;17.20;48.00
49132;DHT22;35149;51.196;6.204;2023-06-04T06:59:24;17.30;47.80
49132;DHT22;35149;51.196;6.204;2023-06-04T07:01:51;17.40;48.00
49132;DHT22;35149;51.196;6.204;2023-06-04T07:04:24;17.40;47.60
49132;DHT22;35149;51.196;6.204;2023-06-04T07:06:52;17.50;47.60
49132;DHT22;35149;51.196;6.204;2023-06-04T07:09:26;17.50;47.50
49132;DHT22;35149;51.196;6.204;2023-06-04T07:11:55;17.60;47.70
49132;DHT22;35149;51.196;6.204;2023-06-04T07:14:27;17.60;47.50
49132;DHT22;35149;51.196;6.204;2023-06-04T07:17:00;17.70;47.10
49132;DHT22;35149;51.196;6.204;2023-06-04T07:19:27;17.80;46.90
49132;DHT22;35149;51.196;6.204;2023-06-04T07:21:56;17.90;46.90
49132;DHT22;35149;51.196;6.204;2023-06-04T07:24:25;17.90;46.70
49132;DHT22;35149;51.196;6.204;2023-06-04T07:26:57;18.00;46.50
49132;DHT22;35149;51.196;6.204;2023-06-04T07:29:23;18.00;46.20
49132;DHT22;35149;51.196;6.204;2023-06-04T07:31:50;18.10;46.40
49132;DHT22;35149;51.196;6.204;2023-06-04T07:34:19;18.20;46.20
49132;DHT22;35149;51.196;6.204;2023-06-04T07:36:47;18.30;45.80
49132;DHT22;35149;51.196;6.204;2023-06-04T07:39:18;18.30;45.80
49132;DHT22;35149;51.196;6.204;2023-06-04T07:41:47;18.40;45.50
49132;DHT22;35149;51.196;6.204;2023-06-04T07:44:13;18.50;45.30
49132;DHT22;35149;51.196;6.204;2023-06-04T07:46:44;18.50;45.70
49132;DHT22;35149;51.196;6.204;2023-06-04T07:49:11;18.60;45.70
49132;DHT22;35149;51.196;6.204;2023-06-04T07:51:40;18.60;45.40
49132;DHT22;35149;51.196;6.204;2023-06-04T07:54:08;18.70;45.60
49132;DHT22;35149;51.196;6.204;2023-06-04T07:56:38;18.80;45.50
49132;DHT22;35149;51.196;6.204;2023-06-04T07:59:07;18.80;45.20
49132;DHT22;35149;51.196;6.204;2023-06-04T08:01:33;18.90;44.90
49132;DHT22;35149;51.196;6.204;2023-06-04T08:04:02;19.00;45.00
49132;DHT22;35149;51.196;6.204;2023-06-04T08:06:30;19.10;45.60
49132;DHT22;35149;51.196;6.204;2023-06-04T08:08:59;19.10;45.00
49132;DHT22;35149;51.196;6.204;2023-06-04T08:11:28;19.20;45.10
49132;DHT22;35149;51.196;6.204;2023-06-04T08:13:55;19.20;44.80
49132;DHT22;35149;51.196;6.204;2023-06-04T08:16:24;19.30;44.80
49132;DHT22;35149;51.196;6.204;2023-06-04T08:18:53;19.40;44.90
49132;DHT22;35149;51.196;6.204;2023-06-04T08:21:26;19.50;44.30
49132;DHT22;35149;51.196;6.204;2023-06-04T08:23:54;19.50;44.10
49132;DHT22;35149;51.196;6.204;2023-06-04T08:26:31;19.60;43.70
49132;DHT22;35149;51.196;6.204;2023-06-04T08:29:05;19.70;43.30
49132;DHT22;35149;51.196;6.204;2023-06-04T08:31:33;19.80;43.30
49132;DHT22;35149;51.196;6.204;2023-06-04T08:34:02;19.80;43.10
49132;DHT22;35149;51.196;6.204;2023-06-04T08:36:33;19.90;43.30
49132;DHT22;35149;51.196;6.204;2023-06-04T08:39:02;20.00;43.00
49132;DHT22;35149;51.196;6.204;2023-06-04T08:41:48;20.10;42.50
49132;DHT22;35149;51.196;6.204;2023-06-04T08:44:18;20.10;42.10
49132;DHT22;35149;51.196;6.204;2023-06-04T08:46:44;20.20;42.60
49132;DHT22;35149;51.196;6.204;2023-06-04T08:49:17;20.30;42.30
49132;DHT22;35149;51.196;6.204;2023-06-04T08:51:45;20.40;41.80
49132;DHT22;35149;51.196;6.204;2023-06-04T08:54:14;20.40;41.40
49132;DHT22;35149;51.196;6.204;2023-06-04T08:56:44;20.50;41.10
49132;DHT22;35149;51.196;6.204;2023-06-04T08:59:14;20.60;40.40
49132;DHT22;35149;51.196;6.204;2023-06-04T09:01:46;20.70;40.80
49132;DHT22;35149;51.196;6.204;2023-06-04T09:04:15;20.70;39.90
49132;DHT22;35149;51.196;6.204;2023-06-04T09:06:45;20.80;39.90
49132;DHT22;35149;51.196;6.204;2023-06-04T09:09:20;20.90;39.50
49132;DHT22;35149;51.196;6.204;2023-06-04T09:11:56;21.10;39.50
49132;DHT22;35149;51.196;6.204;2023-06-04T09:14:28;21.00;38.90
49132;DHT22;35149;51.196;6.204;2023-06-04T09:16:56;21.10;38.30
49132;DHT22;35149;51.196;6.204;2023-06-04T09:19:27;21.10;38.10
49132;DHT22;35149;51.196;6.204;2023-06-04T09:21:56;21.30;38.50
49132;DHT22;35149;51.196;6.204;2023-06-04T09:24:47;21.30;38.50
49132;DHT22;35149;51.196;6.204;2023-06-04T09:27:20;21.40;38.50
49132;DHT22;35149;51.196;6.204;2023-06-04T09:29:58;21.50;38.10
49132;DHT22;35149;51.196;6.204;2023-06-04T09:32:30;21.50;38.30
49132;DHT22;35149;51.196;6.204;2023-06-04T09:35:12;21.60;37.70
49132;DHT22;35149;51.196;6.204;2023-06-04T09:37:51;21.70;37.50
49132;DHT22;35149;51.196;6.204;2023-06-04T09:40:18;21.70;37.10
49132;DHT22;35149;51.196;6.204;2023-06-04T09:42:50;21.80;37.00
49132;DHT22;35149;51.196;6.204;2023-06-04T09:47:55;21.90;37.40
49132;DHT22;35149;51.196;6.204;2023-06-04T09:50:47;22.00;36.80
49132;DHT22;35149;51.196;6.204;2023-06-04T09:53:15;22.10;36.50
49132;DHT22;35149;51.196;6.204;2023-06-04T09:55:56;22.20;36.20
49132;DHT22;35149;51.196;6.204;2023-06-04T09:58:26;22.20;35.40
49132;DHT22;35149;51.196;6.204;2023-06-04T10:00:57;22.30;35.80
49132;DHT22;35149;51.196;6.204;2023-06-04T10:03:31;22.30;35.90
49132;DHT22;35149;51.196;6.204;2023-06-04T10:06:01;22.40;35.20
49132;DHT22;35149;51.196;6.204;2023-06-04T10:08:32;22.40;36.10
49132;DHT22;35149;51.196;6.204;2023-06-04T10:11:01;22.50;35.80
49132;DHT22;35149;51.196;6.204;2023-06-04T10:13:43;22.50;35.40
49132;DHT22;35149;51.196;6.204;2023-06-04T10:16:21;22.60;35.40
49132;DHT22;35149;51.196;6.204;2023-06-04T10:19:03;22.60;35.20
49132;DHT22;35149;51.196;6.204;2023-06-04T10:21:35;22.60;34.80
49132;DHT22;35149;51.196;6.204;2023-06-04T10:24:03;22.70;35.40
49132;DHT22;35149;51.196;6.204;2023-06-04T10:26:33;22.70;34.60
49132;DHT22;35149;51.196;6.204;2023-06-04T10:29:02;22.80;34.60
49132;DHT22;35149;51.196;6.204;2023-06-04T10:31:32;22.80;33.90
49132;DHT22;35149;51.196;6.204;2023-06-04T10:33:59;22.90;33.80
49132;DHT22;35149;51.196;6.204;2023-06-04T10:36:26;23.00;34.10
49132;DHT22;35149;51.196;6.204;2023-06-04T10:38:56;23.00;33.80
49132;DHT22;35149;51.196;6.204;2023-06-04T10:41:23;23.10;33.10
49132;DHT22;35149;51.196;6.204;2023-06-04T10:44:02;23.10;33.50
49132;DHT22;35149;51.196;6.204;2023-06-04T10:46:40;23.20;33.80
49132;DHT22;35149;51.196;6.204;2023-06-04T10:49:29;23.20;33.70
49132;DHT22;35149;51.196;6.204;2023-06-04T10:51:56;23.30;32.80
49132;DHT22;35149;51.196;6.204;2023-06-04T10:54:24;23.40;33.20
49132;DHT22;35149;51.196;6.204;2023-06-04T10:56:54;23.40;33.00
49132;DHT22;35149;51.196;6.204;2023-06-04T10:59:25;23.40;32.80
49132;DHT22;35149;51.196;6.204;2023-06-04T11:02:05;23.50;32.30
49132;DHT22;35149;51.196;6.204;2023-06-04T11:04:32;23.60;31.70
49132;DHT22;35149;51.196;6.204;2023-06-04T11:07:06;23.60;32.40
49132;DHT22;35149;51.196;6.204;2023-06-04T11:09:58;23.70;32.10
49132;DHT22;35149;51.196;6.204;2023-06-04T11:12:23;23.80;32.20
49132;DHT22;35149;51.196;6.204;2023-06-04T11:14:57;23.80;32.10
49132;DHT22;35149;51.196;6.204;2023-06-04T11:17:24;24.00;32.30
49132;DHT22;35149;51.196;6.204;2023-06-04T11:19:51;24.00;32.00
49132;DHT22;35149;51.196;6.204;2023-06-04T11:22:23;24.00;32.10
49132;DHT22;35149;51.196;6.204;2023-06-04T11:24:56;24.10;31.60
49132;DHT22;35149;51.196;6.204;2023-06-04T11:27:27;24.20;31.80
49132;DHT22;35149;51.196;6.204;2023-06-04T11:30:03;24.20;31.20
49132;DHT22;35149;51.196;6.204;2023-06-04T11:32:30;24.30;31.60
49132;DHT22;35149;51.196;6.204;2023-06-04T11:35:03;24.30;31.80
49132;DHT22;35149;51.196;6.204;2023-06-04T11:37:37;24.30;31.60
49132;DHT22;35149;51.196;6.204;2023-06-04T11:40:24;24.40;31.80
49132;DHT22;35149;51.196;6.204;2023-06-04T11:42:53;24.50;31.60
49132;DHT22;35149;51.196;6.204;2023-06-04T11:45:27;24.50;31.90
49132;DHT22;35149;51.196;6.204;2023-06-04T11:47:57;24.60;31.00
49132;DHT22;35149;51.196;6.204;2023-06-04T11:50:31;24.70;31.20
49132;DHT22;35149;51.196;6.204;2023-06-04T11:52:58;24.70;31.20
49132;DHT22;35149;51.196;6.204;2023-06-04T11:55:29;24.70;31.00
49132;DHT22;35149;51.196;6.204;2023-06-04T11:57:57;24.80;30.70
49132;DHT22;35149;51.196;6.204;2023-06-04T12:00:25;24.90;30.70
49132;DHT22;35149;51.196;6.204;2023-06-04T12:02:54;25.00;30.30
49132;DHT22;35149;51.196;6.204;2023-06-04T12:05:29;25.10;30.00
49132;DHT22;35149;51.196;6.204;2023-06-04T12:08:10;25.10;30.30
49132;DHT22;35149;51.196;6.204;2023-06-04T12:10:41;25.20;30.20
49132;DHT22;35149;51.196;6.204;2023-06-04T12:13:09;25.30;30.30
49132;DHT22;35149;51.196;6.204;2023-06-04T12:15:36;25.40;30.30
49132;DHT22;35149;51.196;6.204;2023-06-04T12:18:08;25.40;29.90
49132;DHT22;35149;51.196;6.204;2023-06-04T12:20:40;25.50;29.80
49132;DHT22;35149;51.196;6.204;2023-06-04T12:23:20;25.60;29.80
49132;DHT22;35149;51.196;6.204;2023-06-04T12:25:55;25.60;28.80
49132;DHT22;35149;51.196;6.204;2023-06-04T12:28:29;25.70;29.40
49132;DHT22;35149;51.196;6.204;2023-06-04T12:31:00;25.80;29.00
49132;DHT22;35149;51.196;6.204;2023-06-04T12:33:31;25.80;28.90
49132;DHT22;35149;51.196;6.204;2023-06-04T12:36:02;25.90;28.60
49132;DHT22;35149;51.196;6.204;2023-06-04T12:38:31;25.90;28.60
49132;DHT22;35149;51.196;6.204;2023-06-04T12:41:00;25.90;29.30
49132;DHT22;35149;51.196;6.204;2023-06-04T12:43:29;26.00;29.10
49132;DHT22;35149;51.196;6.204;2023-06-04T12:46:00;26.10;28.40
49132;DHT22;35149;51.196;6.204;2023-06-04T12:48:32;26.20;28.20
49132;DHT22;35149;51.196;6.204;2023-06-04T12:51:02;26.20;28.10
49132;DHT22;35149;51.196;6.204;2023-06-04T12:53:36;26.20;28.00
49132;DHT22;35149;51.196;6.204;2023-06-04T12:56:04;26.30;28.20
49132;DHT22;35149;51.196;6.204;2023-06-04T12:58:31;26.40;28.30
49132;DHT22;35149;51.196;6.204;2023-06-04T13:01:01;26.40;28.00
49132;DHT22;35149;51.196;6.204;2023-06-04T13:03:30;26.60;27.90
49132;DHT22;35149;51.196;6.204;2023-06-04T13:06:03;26.70;27.90
49132;DHT22;35149;51.196;6.204;2023-06-04T13:08:29;26.80;27.80
49132;DHT22;35149;51.196;6.204;2023-06-04T13:10:57;26.90;27.60
49132;DHT22;35149;51.196;6.204;2023-06-04T13:13:24;27.00;27.90
49132;DHT22;35149;51.196;6.204;2023-06-04T13:15:58;27.10;27.30
49132;DHT22;35149;51.196;6.204;2023-06-04T13:18:26;27.20;27.40
49132;DHT22;35149;51.196;6.204;2023-06-04T13:20:52;27.30;27.20
49132;DHT22;35149;51.196;6.204;2023-06-04T13:23:23;27.40;27.30
49132;DHT22;35149;51.196;6.204;2023-06-04T13:26:07;27.50;27.70
49132;DHT22;35149;51.196;6.204;2023-06-04T13:28:34;27.70;27.50
49132;DHT22;35149;51.196;6.204;2023-06-04T13:31:01;28.10;27.00
49132;DHT22;35149;51.196;6.204;2023-06-04T13:33:30;28.60;27.20
49132;DHT22;35149;51.196;6.204;2023-06-04T13:36:03;29.20;27.50
49132;DHT22;35149;51.196;6.204;2023-06-04T13:38:32;30.10;27.10
49132;DHT22;35149;51.196;6.204;2023-06-04T13:40:59;31.10;27.20
49132;DHT22;35149;51.196;6.204;2023-06-04T13:43:31;32.30;27.30
49132;DHT22;35149;51.196;6.204;2023-06-04T13:46:05;33.60;26.40
49132;DHT22;35149;51.196;6.204;2023-06-04T13:48:48;34.90;25.80
49132;DHT22;35149;51.196;6.204;2023-06-04T13:51:18;35.90;24.60
49132;DHT22;35149;51.196;6.204;2023-06-04T13:53:50;36.90;24.70
49132;DHT22;35149;51.196;6.204;2023-06-04T13:56:20;37.80;23.50
49132;DHT22;35149;51.196;6.204;2023-06-04T13:58:46;38.60;22.80
49132;DHT22;35149;51.196;6.204;2023-06-04T14:01:15;39.20;22.80
49132;DHT22;35149;51.196;6.204;2023-06-04T14:03:45;39.70;22.90
49132;DHT22;35149;51.196;6.204;2023-06-04T14:06:15;40.30;21.80
49132;DHT22;35149;51.196;6.204;2023-06-04T14:08:53;40.80;21.60
49132;DHT22;35149;51.196;6.204;2023-06-04T14:11:24;41.30;22.20
49132;DHT22;35149;51.196;6.204;2023-06-04T14:13:51;41.80;21.20
49132;DHT22;35149;51.196;6.204;2023-06-04T14:16:17;42.30;21.10
49132;DHT22;35149;51.196;6.204;2023-06-04T14:18:47;42.80;20.90
49132;DHT22;35149;51.196;6.204;2023-06-04T14:21:16;43.40;20.70
49132;DHT22;35149;51.196;6.204;2023-06-04T14:23:44;43.90;20.10
49132;DHT22;35149;51.196;6.204;2023-06-04T14:26:13;44.40;20.90
49132;DHT22;35149;51.196;6.204;2023-06-04T14:28:45;44.80;20.00
49132;DHT22;35149;51.196;6.204;2023-06-04T14:31:11;45.20;19.70
49132;DHT22;35149;51.196;6.204;2023-06-04T14:33:39;45.30;19.20
49132;DHT22;35149;51.196;6.204;2023-06-04T14:36:10;45.40;19.00
49132;DHT22;35149;51.196;6.204;2023-06-04T14:38:37;45.40;18.80
49132;DHT22;35149;51.196;6.204;2023-06-04T14:41:04;45.30;18.90
49132;DHT22;35149;51.196;6.204;2023-06-04T14:43:31;45.30;19.10
49132;DHT22;35149;51.196;6.204;2023-06-04T14:45:58;45.50;19.00
49132;DHT22;35149;51.196;6.204;2023-06-04T14:48:26;45.70;19.00
49132;DHT22;35149;51.196;6.204;2023-06-04T14:50:56;45.80;19.10
49132;DHT22;35149;51.196;6.204;2023-06-04T14:53:24;46.00;19.10
49132;DHT22;35149;51.196;6.204;2023-06-04T14:55:51;46.20;19.00
49132;DHT22;35149;51.196;6.204;2023-06-04T14:58:19;46.30;18.70
49132;DHT22;35149;51.196;6.204;2023-06-04T15:00:46;46.40;18.90
49132;DHT22;35149;51.196;6.204;2023-06-04T15:03:13;46.60;18.50
49132;DHT22;35149;51.196;6.204;2023-06-04T15:05:40;46.70;18.20
49132;DHT22;35149;51.196;6.204;2023-06-04T15:08:06;46.80;18.50
49132;DHT22;35149;51.196;6.204;2023-06-04T15:10:33;46.90;18.70
49132;DHT22;35149;51.196;6.204;2023-06-04T15:13:00;47.10;18.60
49132;DHT22;35149;51.196;6.204;2023-06-04T15:15:29;47.10;18.50
49132;DHT22;35149;51.196;6.204;2023-06-04T15:17:57;47.20;18.30
49132;DHT22;35149;51.196;6.204;2023-06-04T15:20:24;47.20;18.30
49132;DHT22;35149;51.196;6.204;2023-06-04T15:22:57;47.40;18.40
49132;DHT22;35149;51.196;6.204;2023-06-04T15:25:23;47.70;18.40
49132;DHT22;35149;51.196;6.204;2023-06-04T15:27:53;47.90;18.30
49132;DHT22;35149;51.196;6.204;2023-06-04T15:30:22;48.10;18.20
49132;DHT22;35149;51.196;6.204;2023-06-04T15:32:51;48.30;18.30
49132;DHT22;35149;51.196;6.204;2023-06-04T15:35:28;48.40;18.70
49132;DHT22;35149;51.196;6.204;2023-06-04T15:37:54;48.50;17.80
49132;DHT22;35149;51.196;6.204;2023-06-04T15:40:29;48.70;17.90
49132;DHT22;35149;51.196;6.204;2023-06-04T15:43:00;48.80;17.60
49132;DHT22;35149;51.196;6.204;2023-06-04T15:45:30;48.90;17.50
49132;DHT22;35149;51.196;6.204;2023-06-04T15:47:59;48.70;17.50
49132;DHT22;35149;51.196;6.204;2023-06-04T15:50:32;48.60;17.70
49132;DHT22;35149;51.196;6.204;2023-06-04T15:53:01;48.60;17.70